createdAt,value
2023-12-27T00:00:16.161Z,623.00
2023-12-27T00:01:16.193Z,625.00
2023-12-27T00:02:16.122Z,623.00
2023-12-27T00:03:16.152Z,627.00
2023-12-27T00:04:16.208Z,624.00
2023-12-27T00:05:16.152Z,628.00
2023-12-27T00:06:16.162Z,629.00
2023-12-27T00:07:16.138Z,623.00
2023-12-27T00:08:16.110Z,625.00
2023-12-27T00:09:17.007Z,623.00
2023-12-27T00:10:16.114Z,627.00
2023-12-27T00:11:16.076Z,626.00
2023-12-27T00:12:16.135Z,624.00
2023-12-27T00:13:16.096Z,623.00
2023-12-27T00:14:16.096Z,624.00
2023-12-27T00:15:16.144Z,628.00
2023-12-27T00:16:16.115Z,627.00
2023-12-27T00:17:16.120Z,627.00
2023-12-27T00:18:16.231Z,626.00
2023-12-27T00:19:16.198Z,627.00
2023-12-27T00:20:16.189Z,630.00
2023-12-27T00:21:16.264Z,621.00
2023-12-27T00:22:16.252Z,626.00
2023-12-27T00:23:16.288Z,624.00
2023-12-27T00:24:16.358Z,625.00
2023-12-27T00:25:16.339Z,625.00
2023-12-27T00:26:16.423Z,625.00
2023-12-27T00:27:16.516Z,629.00
2023-12-27T00:28:16.509Z,627.00
2023-12-27T00:29:16.448Z,620.00
2023-12-27T00:30:16.581Z,629.00
2023-12-27T00:31:16.541Z,628.00
2023-12-27T00:32:16.568Z,623.00
2023-12-27T00:33:16.670Z,622.00
2023-12-27T00:34:16.717Z,625.00
2023-12-27T00:35:16.646Z,627.00
2023-12-27T00:36:16.784Z,629.00
2023-12-27T00:37:16.709Z,622.00
2023-12-27T00:38:16.766Z,619.00
2023-12-27T00:39:16.863Z,623.00
2023-12-27T00:40:16.960Z,630.00
2023-12-27T00:41:16.892Z,630.00
2023-12-27T00:42:17.143Z,624.00
2023-12-27T00:43:17.066Z,626.00
2023-12-27T00:44:17.065Z,628.00
2023-12-27T00:45:17.121Z,623.00
2023-12-27T00:46:17.185Z,626.00
2023-12-27T00:47:17.188Z,626.00
2023-12-27T00:48:17.477Z,625.00
2023-12-27T00:49:17.467Z,625.00
2023-12-27T00:50:17.386Z,628.00
2023-12-27T00:51:17.477Z,624.00
2023-12-27T00:52:17.471Z,623.00
2023-12-27T00:53:17.511Z,628.00
2023-12-27T00:54:17.587Z,623.00
2023-12-27T00:55:17.632Z,626.00
2023-12-27T00:56:17.770Z,627.00
2023-12-27T00:57:17.723Z,627.00
2023-12-27T00:58:17.762Z,627.00
2023-12-27T00:59:17.800Z,626.00
2023-12-27T01:00:17.890Z,622.00
2023-12-27T01:01:18.633Z,629.00
2023-12-27T01:02:17.985Z,626.00
2023-12-27T01:03:18.038Z,630.00
2023-12-27T01:04:18.186Z,625.00
2023-12-27T01:05:18.287Z,630.00
2023-12-27T01:06:18.213Z,627.00
2023-12-27T01:07:18.256Z,626.00
2023-12-27T01:08:18.306Z,627.00
2023-12-27T01:09:18.487Z,627.00
2023-12-27T01:10:18.391Z,627.00
2023-12-27T01:11:18.444Z,627.00
2023-12-27T01:12:18.564Z,624.00
2023-12-27T01:13:18.546Z,627.00
2023-12-27T01:14:18.600Z,628.00
2023-12-27T01:15:18.688Z,623.00
2023-12-27T01:16:18.715Z,625.00
2023-12-27T01:17:18.756Z,627.00
2023-12-27T01:18:18.967Z,628.00
2023-12-27T01:19:18.964Z,625.00
2023-12-27T01:20:18.926Z,630.00
2023-12-27T01:21:19.067Z,628.00
2023-12-27T01:22:19.050Z,629.00
2023-12-27T01:23:19.103Z,619.00
2023-12-27T01:24:19.162Z,627.00
2023-12-27T01:25:19.182Z,624.00
2023-12-27T01:26:19.284Z,623.00
2023-12-27T01:27:19.343Z,627.00
2023-12-27T01:28:19.388Z,626.00
2023-12-27T01:29:19.419Z,627.00
2023-12-27T01:30:19.561Z,625.00
2023-12-27T01:31:19.639Z,627.00
2023-12-27T01:32:19.568Z,625.00
2023-12-27T01:33:19.891Z,628.00
2023-12-27T01:34:23.566Z,623.00
2023-12-27T01:35:19.942Z,623.00
2023-12-27T01:36:19.736Z,624.00
2023-12-27T01:37:19.686Z,625.00
2023-12-27T01:38:19.695Z,627.00
2023-12-27T01:39:19.750Z,628.00
2023-12-27T01:40:19.704Z,632.00
2023-12-27T01:41:19.741Z,625.00
2023-12-27T01:42:19.715Z,627.00
2023-12-27T01:43:19.701Z,623.00
2023-12-27T01:44:19.695Z,630.00
2023-12-27T01:45:19.721Z,628.00
2023-12-27T01:46:19.725Z,628.00
2023-12-27T01:47:19.717Z,627.00
2023-12-27T01:48:19.944Z,627.00
2023-12-27T01:49:19.778Z,628.00
2023-12-27T01:50:19.729Z,629.00
2023-12-27T01:51:19.833Z,623.00
2023-12-27T01:52:19.752Z,628.00
2023-12-27T01:53:19.712Z,630.00
2023-12-27T01:54:19.824Z,630.00
2023-12-27T01:55:19.828Z,626.00
2023-12-27T01:56:19.883Z,627.00
2023-12-27T01:57:19.951Z,627.00
2023-12-27T01:58:19.988Z,628.00
2023-12-27T01:59:20.097Z,628.00
2023-12-27T02:00:20.135Z,622.00
2023-12-27T02:01:20.187Z,628.00
2023-12-27T02:02:20.230Z,631.00
2023-12-27T02:03:20.334Z,628.00
2023-12-27T02:04:20.405Z,629.00
2023-12-27T02:05:20.429Z,628.00
2023-12-27T02:06:20.490Z,629.00
2023-12-27T02:07:28.082Z,625.00
2023-12-27T02:08:21.498Z,625.00
2023-12-27T02:09:20.579Z,624.00
2023-12-27T02:10:20.533Z,628.00
2023-12-27T02:11:20.505Z,629.00
2023-12-27T02:12:20.596Z,628.00
2023-12-27T02:13:20.519Z,629.00
2023-12-27T02:14:20.519Z,625.00
2023-12-27T02:15:20.573Z,630.00
2023-12-27T02:16:20.542Z,626.00
2023-12-27T02:17:20.541Z,625.00
2023-12-27T02:18:20.719Z,628.00
2023-12-27T02:19:20.592Z,631.00
2023-12-27T02:20:20.654Z,631.00
2023-12-27T02:21:20.735Z,630.00
2023-12-27T02:22:20.722Z,620.00
2023-12-27T02:23:20.745Z,628.00
2023-12-27T02:24:20.912Z,622.00
2023-12-27T02:25:20.957Z,629.00
2023-12-27T02:26:20.971Z,633.00
2023-12-27T02:27:21.043Z,630.00
2023-12-27T02:28:21.062Z,629.00
2023-12-27T02:29:21.115Z,621.00
2023-12-27T02:30:21.235Z,626.00
2023-12-27T02:31:21.240Z,631.00
2023-12-27T02:32:21.308Z,627.00
2023-12-27T02:33:21.477Z,626.00
2023-12-27T02:34:21.524Z,626.00
2023-12-27T02:35:21.734Z,629.00
2023-12-27T02:36:21.521Z,627.00
2023-12-27T02:37:21.559Z,633.00
2023-12-27T02:38:21.737Z,629.00
2023-12-27T02:39:21.750Z,629.00
2023-12-27T02:40:21.780Z,628.00
2023-12-27T02:41:21.873Z,629.00
2023-12-27T02:42:21.945Z,630.00
2023-12-27T02:43:21.952Z,627.00
2023-12-27T02:44:22.006Z,622.00
2023-12-27T02:45:22.140Z,630.00
2023-12-27T02:46:22.165Z,628.00
2023-12-27T02:47:22.220Z,619.00
2023-12-27T02:48:22.349Z,632.00
2023-12-27T02:49:22.399Z,629.00
2023-12-27T02:50:22.401Z,634.00
2023-12-27T02:51:22.541Z,629.00
2023-12-27T02:52:22.520Z,624.00
2023-12-27T02:53:22.604Z,628.00
2023-12-27T02:54:22.705Z,625.00
2023-12-27T02:55:22.737Z,631.00
2023-12-27T02:56:22.804Z,630.00
2023-12-27T02:57:22.920Z,628.00
2023-12-27T02:58:22.937Z,630.00
2023-12-27T02:59:22.957Z,627.00
2023-12-27T03:00:23.081Z,630.00
2023-12-27T03:01:23.145Z,626.00
2023-12-27T03:02:23.262Z,627.00
2023-12-27T03:03:23.259Z,629.00
2023-12-27T03:04:23.322Z,630.00
2023-12-27T03:05:23.400Z,627.00
2023-12-27T03:06:23.427Z,631.00
2023-12-27T03:07:23.477Z,625.00
2023-12-27T03:08:23.575Z,629.00
2023-12-27T03:09:23.676Z,627.00
2023-12-27T03:10:23.691Z,625.00
2023-12-27T03:11:23.811Z,630.00
2023-12-27T03:12:23.832Z,630.00
2023-12-27T03:13:23.877Z,632.00
2023-12-27T03:14:23.924Z,635.00
2023-12-27T03:15:24.085Z,629.00
2023-12-27T03:16:24.073Z,628.00
2023-12-27T03:17:24.204Z,632.00
2023-12-27T03:18:24.322Z,629.00
2023-12-27T03:19:24.345Z,631.00
2023-12-27T03:20:24.331Z,629.00
2023-12-27T03:21:24.424Z,627.00
2023-12-27T03:22:24.490Z,628.00
2023-12-27T03:23:24.569Z,629.00
2023-12-27T03:24:24.659Z,630.00
2023-12-27T03:25:24.675Z,625.00
2023-12-27T03:26:24.745Z,629.00
2023-12-27T03:27:24.878Z,629.00
2023-12-27T03:28:24.908Z,624.00
2023-12-27T03:29:24.936Z,631.00
2023-12-27T03:30:25.104Z,630.00
2023-12-27T03:31:25.097Z,624.00
2023-12-27T03:32:25.163Z,632.00
2023-12-27T03:33:25.374Z,627.00
2023-12-27T03:34:25.399Z,627.00
2023-12-27T03:35:25.346Z,626.00
2023-12-27T03:36:25.457Z,628.00
2023-12-27T03:37:25.462Z,630.00
2023-12-27T03:38:25.527Z,625.00
2023-12-27T03:39:25.613Z,631.00
2023-12-27T03:40:25.705Z,630.00
2023-12-27T03:41:25.735Z,627.00
2023-12-27T03:42:25.822Z,628.00
2023-12-27T03:43:25.830Z,631.00
2023-12-27T03:44:25.891Z,630.00
2023-12-27T03:45:25.931Z,632.00
2023-12-27T03:46:26.032Z,628.00
2023-12-27T03:47:26.096Z,631.00
2023-12-27T03:48:26.341Z,630.00
2023-12-27T03:49:26.465Z,625.00
2023-12-27T03:50:26.301Z,630.00
2023-12-27T03:51:26.437Z,633.00
2023-12-27T03:52:26.441Z,625.00
2023-12-27T03:53:26.527Z,629.00
2023-12-27T03:54:26.643Z,630.00
2023-12-27T03:55:26.673Z,633.00
2023-12-27T03:56:26.717Z,630.00
2023-12-27T03:57:26.859Z,631.00
2023-12-27T03:58:26.868Z,629.00
2023-12-27T03:59:26.912Z,630.00
2023-12-27T04:00:27.008Z,629.00
2023-12-27T04:01:27.101Z,631.00
2023-12-27T04:02:27.148Z,628.00
2023-12-27T04:03:29.367Z,635.00
2023-12-27T04:04:27.202Z,632.00
2023-12-27T04:05:27.259Z,629.00
2023-12-27T04:06:27.212Z,630.00
2023-12-27T04:07:27.200Z,631.00
2023-12-27T04:08:27.283Z,625.00
2023-12-27T04:09:27.251Z,633.00
2023-12-27T04:10:27.252Z,629.00
2023-12-27T04:11:27.211Z,627.00
2023-12-27T04:12:27.276Z,628.00
2023-12-27T04:13:27.206Z,630.00
2023-12-27T04:14:27.206Z,634.00
2023-12-27T04:15:27.285Z,629.00
2023-12-27T04:16:27.245Z,630.00
2023-12-27T04:17:27.307Z,629.00
2023-12-27T04:18:27.305Z,632.00
2023-12-27T04:19:27.346Z,629.00
2023-12-27T04:20:27.255Z,629.00
2023-12-27T04:21:27.288Z,633.00
2023-12-27T04:22:27.263Z,630.00
2023-12-27T04:23:27.246Z,632.00
2023-12-27T04:24:27.226Z,626.00
2023-12-27T04:25:27.230Z,632.00
2023-12-27T04:26:27.231Z,630.00
2023-12-27T04:27:27.262Z,634.00
2023-12-27T04:28:27.256Z,626.00
2023-12-27T04:29:27.224Z,632.00
2023-12-27T04:30:27.273Z,633.00
2023-12-27T04:31:27.255Z,631.00
2023-12-27T04:32:27.285Z,633.00
2023-12-27T04:33:27.386Z,631.00
2023-12-27T04:34:34.717Z,600.00
2023-12-27T04:35:34.701Z,600.00
2023-12-27T04:36:34.743Z,600.00
2023-12-27T04:37:34.704Z,600.00
2023-12-27T04:38:34.710Z,600.00
2023-12-27T04:39:34.743Z,600.00
2023-12-27T04:40:34.700Z,601.00
2023-12-27T04:41:34.666Z,603.00
2023-12-27T04:42:34.748Z,601.00
2023-12-27T04:43:34.676Z,608.00
2023-12-27T04:44:34.695Z,603.00
2023-12-27T04:45:34.720Z,602.00
2023-12-27T04:46:34.696Z,605.00
2023-12-27T04:47:34.798Z,603.00
2023-12-27T04:48:34.769Z,607.00
2023-12-27T04:49:34.732Z,603.00
2023-12-27T04:50:34.723Z,606.00
2023-12-27T04:51:34.702Z,608.00
2023-12-27T04:52:34.701Z,602.00
2023-12-27T04:53:34.722Z,607.00
2023-12-27T04:54:34.862Z,608.00
2023-12-27T04:55:34.840Z,607.00
2023-12-27T04:56:34.871Z,599.00
2023-12-27T04:57:35.004Z,607.00
2023-12-27T04:58:35.115Z,609.00
2023-12-27T04:59:35.110Z,606.00
2023-12-27T05:00:35.283Z,606.00
2023-12-27T05:01:35.311Z,612.00
2023-12-27T05:02:35.309Z,606.00
2023-12-27T05:03:35.477Z,609.00
2023-12-27T05:04:35.562Z,606.00
2023-12-27T05:05:35.598Z,607.00
2023-12-27T05:06:35.623Z,608.00
2023-12-27T05:07:35.656Z,612.00
2023-12-27T05:08:35.770Z,611.00
2023-12-27T05:09:35.847Z,607.00
2023-12-27T05:10:35.871Z,603.00
2023-12-27T05:11:35.964Z,610.00
2023-12-27T05:12:36.185Z,610.00
2023-12-27T05:13:36.101Z,604.00
2023-12-27T05:14:36.141Z,610.00
2023-12-27T05:15:36.286Z,605.00
2023-12-27T05:16:36.250Z,607.00
2023-12-27T05:17:36.373Z,598.00
2023-12-27T05:18:36.407Z,602.00
2023-12-27T05:19:36.440Z,604.00
2023-12-27T05:20:36.515Z,600.00
2023-12-27T05:21:36.593Z,603.00
2023-12-27T05:22:36.601Z,603.00
2023-12-27T05:23:36.704Z,604.00
2023-12-27T05:24:36.838Z,603.00
2023-12-27T05:25:36.815Z,604.00
2023-12-27T05:26:36.824Z,603.00
2023-12-27T05:27:37.017Z,600.00
2023-12-27T05:28:36.937Z,605.00
2023-12-27T05:29:37.110Z,601.00
2023-12-27T05:30:37.193Z,601.00
2023-12-27T05:31:37.213Z,600.00
2023-12-27T05:32:37.201Z,603.00
2023-12-27T05:33:37.408Z,604.00
2023-12-27T05:34:37.348Z,604.00
2023-12-27T05:35:37.351Z,601.00
2023-12-27T05:36:37.441Z,602.00
2023-12-27T05:37:37.489Z,603.00
2023-12-27T05:38:37.554Z,608.00
2023-12-27T05:39:37.746Z,601.00
2023-12-27T05:40:37.692Z,601.00
2023-12-27T05:41:37.761Z,605.00
2023-12-27T05:42:37.839Z,604.00
2023-12-27T05:43:37.858Z,607.00
2023-12-27T05:44:37.958Z,607.00
2023-12-27T05:45:38.073Z,604.00
2023-12-27T05:46:38.068Z,607.00
2023-12-27T05:47:38.149Z,607.00
2023-12-27T05:48:38.238Z,603.00
2023-12-27T05:49:38.480Z,603.00
2023-12-27T05:50:38.314Z,600.00
2023-12-27T05:51:38.475Z,605.00
2023-12-27T05:52:38.452Z,606.00
2023-12-27T05:53:38.506Z,603.00
2023-12-27T05:54:38.601Z,607.00
2023-12-27T05:55:38.614Z,600.00
2023-12-27T05:56:38.661Z,602.00
2023-12-27T05:57:38.777Z,602.00
2023-12-27T05:58:38.883Z,603.00
2023-12-27T05:59:38.890Z,601.00
2023-12-27T06:00:39.181Z,602.00
2023-12-27T06:01:39.003Z,602.00
2023-12-27T06:02:39.158Z,602.00
2023-12-27T06:03:39.089Z,607.00
2023-12-27T06:04:39.184Z,600.00
2023-12-27T06:05:39.307Z,607.00
2023-12-27T06:06:39.364Z,606.00
2023-12-27T06:07:39.353Z,604.00
2023-12-27T06:08:39.368Z,604.00
2023-12-27T06:09:39.467Z,608.00
2023-12-27T06:10:39.461Z,603.00
2023-12-27T06:11:39.527Z,604.00
2023-12-27T06:12:39.632Z,606.00
2023-12-27T06:13:39.673Z,609.00
2023-12-27T06:14:39.694Z,603.00
2023-12-27T06:15:39.828Z,603.00
2023-12-27T06:16:39.894Z,607.00
2023-12-27T06:17:39.957Z,605.00
2023-12-27T06:18:40.065Z,609.00
2023-12-27T06:19:40.003Z,615.00
2023-12-27T06:20:40.039Z,608.00
2023-12-27T06:21:40.136Z,610.00
2023-12-27T06:22:40.168Z,609.00
2023-12-27T06:23:40.228Z,609.00
2023-12-27T06:24:40.358Z,608.00
2023-12-27T06:25:40.356Z,609.00
2023-12-27T06:26:40.453Z,609.00
2023-12-27T06:27:40.604Z,608.00
2023-12-27T06:28:40.566Z,609.00
2023-12-27T06:29:40.610Z,607.00
2023-12-27T06:30:40.771Z,609.00
2023-12-27T06:31:40.839Z,609.00
2023-12-27T06:32:40.891Z,608.00
2023-12-27T06:33:40.941Z,608.00
2023-12-27T06:34:40.950Z,608.00
2023-12-27T06:35:40.962Z,610.00
2023-12-27T06:36:41.211Z,608.00
2023-12-27T06:37:42.092Z,607.00
2023-12-27T06:38:41.164Z,614.00
2023-12-27T06:39:41.402Z,607.00
2023-12-27T06:40:41.252Z,609.00
2023-12-27T06:41:41.383Z,609.00
2023-12-27T06:42:41.505Z,609.00
2023-12-27T06:43:41.459Z,606.00
2023-12-27T06:44:41.544Z,611.00
2023-12-27T06:45:41.585Z,607.00
2023-12-27T06:46:41.610Z,607.00
2023-12-27T06:47:41.657Z,608.00
2023-12-27T06:48:41.784Z,612.00
2023-12-27T06:49:41.815Z,608.00
2023-12-27T06:50:41.949Z,612.00
2023-12-27T06:51:41.920Z,604.00
2023-12-27T06:52:41.921Z,610.00
2023-12-27T06:53:41.992Z,606.00
2023-12-27T06:54:42.133Z,611.00
2023-12-27T06:55:42.152Z,606.00
2023-12-27T06:56:42.106Z,612.00
2023-12-27T06:57:42.289Z,610.00
2023-12-27T06:58:42.230Z,612.00
2023-12-27T06:59:42.272Z,612.00
2023-12-27T07:00:42.372Z,615.00
2023-12-27T07:01:42.452Z,610.00
2023-12-27T07:02:42.513Z,612.00
2023-12-27T07:03:42.595Z,609.00
2023-12-27T07:04:42.685Z,613.00
2023-12-27T07:05:42.696Z,612.00
2023-12-27T07:06:42.719Z,613.00
2023-12-27T07:07:42.741Z,608.00
2023-12-27T07:08:42.900Z,613.00
2023-12-27T07:09:42.913Z,609.00
2023-12-27T07:10:42.955Z,610.00
2023-12-27T07:11:42.978Z,610.00
2023-12-27T07:12:43.193Z,612.00
2023-12-27T07:13:43.078Z,607.00
2023-12-27T07:14:43.166Z,614.00
2023-12-27T07:15:43.311Z,608.00
2023-12-27T07:16:43.244Z,611.00
2023-12-27T07:17:43.332Z,607.00
2023-12-27T07:18:43.483Z,608.00
2023-12-27T07:19:43.508Z,610.00
2023-12-27T07:20:43.475Z,609.00
2023-12-27T07:21:43.554Z,611.00
2023-12-27T07:22:43.588Z,612.00
2023-12-27T07:23:43.626Z,611.00
2023-12-27T07:24:43.750Z,612.00
2023-12-27T07:25:43.821Z,614.00
2023-12-27T07:26:43.780Z,611.00
2023-12-27T07:27:43.855Z,613.00
2023-12-27T07:28:43.932Z,611.00
2023-12-27T07:29:43.941Z,610.00
2023-12-27T07:30:44.049Z,612.00
2023-12-27T07:31:44.082Z,615.00
2023-12-27T07:32:44.116Z,609.00
2023-12-27T07:33:44.270Z,610.00
2023-12-27T07:34:44.307Z,611.00
2023-12-27T07:35:44.304Z,613.00
2023-12-27T07:36:44.528Z,612.00
2023-12-27T07:37:44.405Z,613.00
2023-12-27T07:38:44.525Z,613.00
2023-12-27T07:39:44.585Z,617.00
2023-12-27T07:40:44.641Z,613.00
2023-12-27T07:41:44.687Z,613.00
2023-12-27T07:42:44.798Z,613.00
2023-12-27T07:43:44.789Z,613.00
2023-12-27T07:44:44.976Z,612.00
2023-12-27T07:45:44.958Z,613.00
2023-12-27T07:46:44.982Z,616.00
2023-12-27T07:47:45.099Z,610.00
2023-12-27T07:48:45.204Z,613.00
2023-12-27T07:49:45.269Z,612.00
2023-12-27T07:50:45.210Z,616.00
2023-12-27T07:51:45.297Z,617.00
2023-12-27T07:52:45.328Z,610.00
2023-12-27T07:53:45.369Z,609.00
2023-12-27T07:54:45.510Z,616.00
2023-12-27T07:55:45.444Z,616.00
2023-12-27T07:56:45.560Z,613.00
2023-12-27T07:57:45.598Z,616.00
2023-12-27T07:58:45.721Z,614.00
2023-12-27T07:59:45.686Z,617.00
2023-12-27T08:00:45.806Z,615.00
2023-12-27T08:01:45.811Z,619.00
2023-12-27T08:02:45.828Z,611.00
2023-12-27T08:03:46.042Z,615.00
2023-12-27T08:04:45.966Z,611.00
2023-12-27T08:05:46.133Z,618.00
2023-12-27T08:06:46.145Z,614.00
2023-12-27T08:07:46.145Z,617.00
2023-12-27T08:08:46.234Z,614.00
2023-12-27T08:09:46.376Z,621.00
2023-12-27T08:10:46.390Z,617.00
2023-12-27T08:11:46.497Z,617.00
2023-12-27T08:12:46.633Z,617.00
2023-12-27T08:13:46.599Z,615.00
2023-12-27T08:14:46.630Z,620.00
2023-12-27T08:15:46.840Z,621.00
2023-12-27T08:16:46.798Z,617.00
2023-12-27T08:17:46.931Z,619.00
2023-12-27T08:18:47.018Z,611.00
2023-12-27T08:19:47.015Z,617.00
2023-12-27T08:20:47.085Z,615.00
2023-12-27T08:21:47.144Z,616.00
2023-12-27T08:22:47.183Z,619.00
2023-12-27T08:23:47.309Z,616.00
2023-12-27T08:24:47.359Z,622.00
2023-12-27T08:25:47.411Z,618.00
2023-12-27T08:26:47.580Z,620.00
2023-12-27T08:27:47.632Z,620.00
2023-12-27T08:28:47.606Z,619.00
2023-12-27T08:29:47.671Z,621.00
2023-12-27T08:30:47.819Z,619.00
2023-12-27T08:31:47.799Z,623.00
2023-12-27T08:32:47.928Z,614.00
2023-12-27T08:33:48.052Z,619.00
2023-12-27T08:34:48.098Z,618.00
2023-12-27T08:35:48.103Z,618.00
2023-12-27T08:36:48.151Z,619.00
2023-12-27T08:37:48.217Z,621.00
2023-12-27T08:38:48.277Z,618.00
2023-12-27T08:39:48.373Z,619.00
2023-12-27T08:40:49.892Z,620.00
2023-12-27T08:41:48.438Z,619.00
2023-12-27T08:42:48.391Z,617.00
2023-12-27T08:43:48.382Z,616.00
2023-12-27T08:44:48.412Z,616.00
2023-12-27T08:45:48.436Z,617.00
2023-12-27T08:46:48.413Z,615.00
2023-12-27T08:47:48.413Z,617.00
2023-12-27T08:48:48.459Z,617.00
2023-12-27T08:49:48.596Z,617.00
2023-12-27T08:50:48.390Z,612.00
2023-12-27T08:51:48.419Z,614.00
2023-12-27T08:52:48.395Z,609.00
2023-12-27T08:53:48.404Z,608.00
2023-12-27T08:54:48.464Z,603.00
2023-12-27T08:55:48.405Z,605.00
2023-12-27T08:56:48.448Z,611.00
2023-12-27T08:57:48.442Z,617.00
2023-12-27T08:58:48.372Z,614.00
2023-12-27T08:59:48.413Z,617.00
2023-12-27T09:00:48.566Z,629.00
2023-12-27T09:01:48.425Z,637.00
2023-12-27T09:02:48.468Z,646.00
2023-12-27T09:03:48.475Z,656.00
2023-12-27T09:04:48.440Z,668.00
2023-12-27T09:05:48.426Z,688.00
2023-12-27T09:06:48.458Z,716.00
2023-12-27T09:07:48.519Z,733.00
2023-12-27T09:08:48.398Z,748.00
2023-12-27T09:09:48.550Z,771.00
2023-12-27T09:10:48.442Z,782.00
2023-12-27T09:11:48.416Z,808.00
2023-12-27T09:12:48.484Z,829.00
2023-12-27T09:13:48.428Z,843.00
2023-12-27T09:14:48.436Z,871.00
2023-12-27T09:15:48.539Z,868.00
2023-12-27T09:16:48.498Z,848.00
2023-12-27T09:17:48.458Z,849.00
2023-12-27T09:18:48.534Z,840.00
2023-12-27T09:19:48.513Z,828.00
2023-12-27T09:20:48.526Z,819.00
2023-12-27T09:21:48.564Z,799.00
2023-12-27T09:22:48.515Z,774.00
2023-12-27T09:23:48.425Z,760.00
2023-12-27T09:24:48.561Z,747.00
2023-12-27T09:25:48.411Z,732.00
2023-12-27T09:26:48.451Z,711.00
2023-12-27T09:27:48.492Z,714.00
2023-12-27T09:28:48.438Z,692.00
2023-12-27T09:29:48.472Z,674.00
2023-12-27T09:30:48.491Z,664.00
2023-12-27T09:31:48.700Z,658.00
2023-12-27T09:32:48.550Z,654.00
2023-12-27T09:33:48.523Z,650.00
2023-12-27T09:34:48.446Z,649.00
2023-12-27T09:35:48.444Z,648.00
2023-12-27T09:36:48.432Z,645.00
2023-12-27T09:37:48.505Z,645.00
2023-12-27T09:38:48.457Z,643.00
2023-12-27T09:39:48.531Z,642.00
2023-12-27T09:40:48.471Z,638.00
2023-12-27T09:41:48.446Z,640.00
2023-12-27T09:42:48.453Z,638.00
2023-12-27T09:43:48.458Z,635.00
2023-12-27T09:44:48.461Z,629.00
2023-12-27T09:45:48.556Z,629.00
2023-12-27T09:46:48.576Z,630.00
2023-12-27T09:47:48.685Z,627.00
2023-12-27T09:48:48.815Z,624.00
2023-12-27T09:49:48.837Z,622.00
2023-12-27T09:50:48.796Z,620.00
2023-12-27T09:51:48.864Z,621.00
2023-12-27T09:52:48.903Z,619.00
2023-12-27T09:53:48.930Z,615.00
2023-12-27T09:54:49.038Z,618.00
2023-12-27T09:55:49.043Z,611.00
2023-12-27T09:56:49.112Z,617.00
2023-12-27T09:57:49.194Z,614.00
2023-12-27T09:58:49.229Z,611.00
2023-12-27T09:59:49.226Z,616.00
2023-12-27T10:00:49.438Z,611.00
2023-12-27T10:01:49.347Z,614.00
2023-12-27T10:02:49.482Z,612.00
2023-12-27T10:03:49.502Z,609.00
2023-12-27T10:04:49.658Z,604.00
2023-12-27T10:05:49.573Z,609.00
2023-12-27T10:06:49.633Z,607.00
2023-12-27T10:07:49.714Z,609.00
2023-12-27T10:08:49.737Z,611.00
2023-12-27T10:09:49.880Z,607.00
2023-12-27T10:10:49.851Z,608.00
2023-12-27T10:11:49.906Z,610.00
2023-12-27T10:12:49.924Z,606.00
2023-12-27T10:13:49.990Z,609.00
2023-12-27T10:14:50.033Z,605.00
2023-12-27T10:15:50.163Z,611.00
2023-12-27T10:16:50.144Z,604.00
2023-12-27T10:17:50.284Z,606.00
2023-12-27T10:18:50.325Z,602.00
2023-12-27T10:19:50.313Z,606.00
2023-12-27T10:20:50.355Z,604.00
2023-12-27T10:21:50.423Z,606.00
2023-12-27T10:22:50.395Z,605.00
2023-12-27T10:23:50.461Z,608.00
2023-12-27T10:24:50.525Z,607.00
2023-12-27T10:25:50.539Z,602.00
2023-12-27T10:26:50.611Z,606.00
2023-12-27T10:27:50.617Z,606.00
2023-12-27T10:28:50.658Z,602.00
2023-12-27T10:29:50.763Z,602.00
2023-12-27T10:30:50.841Z,604.00
2023-12-27T10:31:50.778Z,608.00
2023-12-27T10:32:50.910Z,605.00
2023-12-27T10:33:50.901Z,608.00
2023-12-27T10:34:51.171Z,606.00
2023-12-27T10:35:50.894Z,606.00
2023-12-27T10:36:50.909Z,605.00
2023-12-27T10:37:50.968Z,605.00
2023-12-27T10:38:51.026Z,604.00
2023-12-27T10:39:51.138Z,605.00
2023-12-27T10:40:51.032Z,606.00
2023-12-27T10:41:51.142Z,603.00
2023-12-27T10:42:51.091Z,605.00
2023-12-27T10:43:51.123Z,605.00
2023-12-27T10:44:51.174Z,604.00
2023-12-27T10:45:51.294Z,609.00
2023-12-27T10:46:51.246Z,604.00
2023-12-27T10:47:51.292Z,604.00
2023-12-27T10:48:51.294Z,603.00
2023-12-27T10:49:51.331Z,605.00
2023-12-27T10:50:51.292Z,601.00
2023-12-27T10:51:51.327Z,603.00
2023-12-27T10:52:51.381Z,605.00
2023-12-27T10:53:51.385Z,603.00
2023-12-27T10:54:51.393Z,605.00
2023-12-27T10:55:51.394Z,606.00
2023-12-27T10:56:51.462Z,611.00
2023-12-27T10:57:51.449Z,607.00
2023-12-27T10:58:51.522Z,605.00
2023-12-27T10:59:51.528Z,604.00
2023-12-27T11:00:51.588Z,602.00
2023-12-27T11:01:51.556Z,604.00
2023-12-27T11:02:51.602Z,608.00
2023-12-27T11:03:51.723Z,600.00
2023-12-27T11:04:51.674Z,603.00
2023-12-27T11:05:51.824Z,604.00
2023-12-27T11:06:51.767Z,609.00
2023-12-27T11:07:51.748Z,604.00
2023-12-27T11:08:51.794Z,604.00
2023-12-27T11:09:51.844Z,603.00
2023-12-27T11:10:51.873Z,601.00
2023-12-27T11:11:51.919Z,605.00
2023-12-27T11:12:51.934Z,605.00
2023-12-27T11:13:51.980Z,603.00
2023-12-27T11:14:52.042Z,600.00
2023-12-27T11:15:52.132Z,603.00
2023-12-27T11:16:52.100Z,602.00
2023-12-27T11:17:52.200Z,609.00
2023-12-27T11:18:52.315Z,608.00
2023-12-27T11:19:52.363Z,606.00
2023-12-27T11:20:52.245Z,607.00
2023-12-27T11:21:52.349Z,609.00
2023-12-27T11:22:52.308Z,607.00
2023-12-27T11:23:52.283Z,607.00
2023-12-27T11:24:52.349Z,604.00
2023-12-27T11:25:52.317Z,610.00
2023-12-27T11:26:52.339Z,603.00
2023-12-27T11:27:52.432Z,601.00
2023-12-27T11:28:52.373Z,604.00
2023-12-27T11:29:52.398Z,606.00
2023-12-27T11:30:52.431Z,611.00
2023-12-27T11:31:52.415Z,610.00
2023-12-27T11:32:52.488Z,608.00
2023-12-27T11:33:52.500Z,610.00
2023-12-27T11:34:52.517Z,609.00
2023-12-27T11:35:52.452Z,609.00
2023-12-27T11:36:52.519Z,612.00
2023-12-27T11:37:52.624Z,614.00
2023-12-27T11:38:52.515Z,613.00
2023-12-27T11:39:52.534Z,617.00
2023-12-27T11:40:52.532Z,619.00
2023-12-27T11:41:52.579Z,616.00
2023-12-27T11:42:52.573Z,616.00
2023-12-27T11:43:52.578Z,615.00
2023-12-27T11:44:52.595Z,617.00
2023-12-27T11:45:52.592Z,616.00
2023-12-27T11:46:52.663Z,618.00
2023-12-27T11:47:52.801Z,617.00
2023-12-27T11:48:52.969Z,617.00
2023-12-27T11:49:52.903Z,614.00
2023-12-27T11:50:52.728Z,615.00
2023-12-27T11:51:52.758Z,614.00
2023-12-27T11:52:59.575Z,616.00
2023-12-27T11:53:53.742Z,616.00
2023-12-27T11:54:52.766Z,616.00
2023-12-27T11:55:52.760Z,616.00
2023-12-27T11:56:52.780Z,616.00
2023-12-27T11:58:09.671Z,600.00
2023-12-27T11:59:10.239Z,600.00
2023-12-27T12:00:09.683Z,600.00
2023-12-27T12:01:09.688Z,600.00
2023-12-27T12:02:09.681Z,600.00
2023-12-27T12:03:09.709Z,601.00
2023-12-27T12:04:09.674Z,604.00
2023-12-27T12:05:09.653Z,604.00
2023-12-27T12:06:09.813Z,601.00
2023-12-27T12:07:09.670Z,602.00
2023-12-27T12:08:09.644Z,605.00
2023-12-27T12:09:09.684Z,601.00
2023-12-27T12:10:09.666Z,607.00
2023-12-27T12:11:09.705Z,607.00
2023-12-27T12:12:51.877Z,600.00
2023-12-27T12:13:51.829Z,600.00
2023-12-27T12:14:55.150Z,600.00
2023-12-27T12:15:51.880Z,600.00
2023-12-27T12:16:51.903Z,600.00
2023-12-27T12:17:51.924Z,600.00
2023-12-27T12:18:51.944Z,600.00
2023-12-27T12:19:51.973Z,600.00
2023-12-27T12:20:53.661Z,603.00
2023-12-27T12:21:51.885Z,602.00
2023-12-27T12:22:51.865Z,602.00
2023-12-27T12:23:51.870Z,604.00
2023-12-27T12:24:51.920Z,604.00
2023-12-27T12:25:51.849Z,603.00
2023-12-27T12:26:51.848Z,607.00
2023-12-27T12:27:51.972Z,605.00
2023-12-27T12:28:51.825Z,604.00
2023-12-27T12:29:51.837Z,604.00